Terminal Aerodrome Forecast
Issued by NWS Duluth, MN

Home | Current Version | Previous Version | Text Only | Print | Product List | Glossary On
Versions: 1 2 3 4 5 6 7 8 9 10 11 12 13 14 15 16 17 18 19 20 21 22
000
FTUS43 KDLH 171136
TAFINL
TAF
KINL 171136Z 1712/1812 23008G16KT P6SM SCT250 WS020/25039KT
     FM171600 23009G16KT P6SM FEW250
     FM172300 25007KT P6SM FEW200
     FM180800 24005KT P6SM -FZDZ BKN050=

USA.gov is the U.S. government's official web portal to all federal, state and local government web resources and services.